Terminal Aerodrome Forecast
Issued by NWS Cleveland, OH

Home | Current Version | Previous Version | Text Only | Print | Product List | Glossary On
Versions: 1 2 3 4 5 6 7 8 9 10 11 12 13 14 15 16 17 18
914
FTUS41 KCLE 182334
TAFMFD
TAF
KMFD 182334Z 1900/1924 22015G25KT 4SM SHRA OVC025
     FM190100 31020G30KT P6SM VCSH OVC007
     FM190300 31020G32KT 6SM -SHRA OVC004
     FM190800 30020G35KT P6SM OVC012
     FM191300 30015G25KT P6SM OVC025=

USA.gov is the U.S. government's official web portal to all federal, state and local government web resources and services.